Time;durP1;ratioP1;P1;durP2;ratioP2;P2;SDS_P1;SDS_P2;PMS_P1;PMS_P2;Temp;Humidity;BMP_temperature;BMP_pressure;BME280_temperature;BME280_humidity;BME280_pressure;Samples;Min_cycle;Max_cycle;Signal;HPM_P1;HPM_P2
2021/12/24 00:01:55;;;;;;;128.63;51.85;;;;;;;0.99;69.58;97614.88;4957187;28;20482;-78
2021/12/24 00:04:22;;;;;;;123.80;52.05;;;;;;;1.04;69.01;97628.84;4941227;28;20415;-78
2021/12/24 00:06:48;;;;;;;139.98;58.45;;;;;;;1.02;69.09;97615.69;4941037;28;20039;-76
2021/12/24 00:09:21;;;;;;;117.95;53.28;;;;;;;1.07;68.99;97620.88;4922063;28;20050;-77
2021/12/24 00:11:48;;;;;;;136.35;58.67;;;;;;;1.08;69.19;97610.28;4938690;28;20035;-77
2021/12/24 00:14:15;;;;;;;112.80;47.58;;;;;;;1.16;68.76;97618.00;4921508;28;20134;-77
2021/12/24 00:16:43;;;;;;;77.13;36.38;;;;;;;1.12;67.62;97610.19;4937920;29;20042;-77
2021/12/24 00:35:30;;;;;;;113.70;47.78;;;;;;;0.75;71.18;97600.53;4947770;28;20105;-77
2021/12/24 00:38:01;;;;;;;88.90;39.67;;;;;;;0.76;69.87;97607.53;4923673;28;20510;-78
2021/12/24 00:40:27;;;;;;;93.47;40.78;;;;;;;0.70;70.43;97612.06;4953543;28;20035;-77
2021/12/24 00:42:55;;;;;;;102.75;46.22;;;;;;;0.70;70.93;97591.00;4921126;28;20039;-77
2021/12/24 00:45:29;;;;;;;110.70;47.95;;;;;;;0.73;70.67;97580.41;4921240;28;20526;-78
2021/12/24 00:47:56;;;;;;;92.07;39.72;;;;;;;0.72;70.18;97581.31;4936067;28;20090;-79
2021/12/24 00:50:25;;;;;;;81.80;36.50;;;;;;;0.68;69.58;97561.25;4949338;28;20400;-77
2021/12/24 00:52:56;;;;;;;45.15;20.23;;;;;;;0.71;69.09;97584.84;4939674;28;20470;-77
2021/12/24 00:55:25;;;;;;;51.33;25.85;;;;;;;0.67;68.95;97580.56;4937625;28;20051;-77
2021/12/24 00:57:52;;;;;;;56.80;25.25;;;;;;;0.56;70.89;97593.94;4920916;29;20034;-77
2021/12/24 01:00:27;;;;;;;74.97;33.85;;;;;;;0.40;71.60;97577.63;4936558;28;20039;-77
2021/12/24 01:02:54;;;;;;;62.88;26.85;;;;;;;0.43;71.02;97590.69;4955386;28;20031;-77
2021/12/24 01:05:21;;;;;;;102.85;41.65;;;;;;;0.33;71.96;97576.03;4938690;28;20491;-78
2021/12/24 01:07:49;;;;;;;55.78;27.23;;;;;;;0.31;71.64;97572.53;4930555;28;20503;-79
2021/12/24 01:10:17;;;;;;;86.00;34.50;;;;;;;0.24;72.54;97583.25;4955684;28;20498;-77
2021/12/24 01:12:43;;;;;;;70.63;29.67;;;;;;;0.22;70.56;97583.25;4939715;28;20046;-78
2021/12/24 01:15:09;;;;;;;74.85;33.08;;;;;;;0.24;72.78;97592.00;4955499;28;20105;-77
2021/12/24 01:20:14;;;;;;;130.95;51.10;;;;;;;0.09;74.42;97580.94;4956018;28;20638;-77
2021/12/24 01:25:32;;;;;;;130.70;52.90;;;;;;;0.14;73.05;97569.44;4949133;28;20407;-78
2021/12/24 01:39:10;;;;;;;88.07;32.92;;;;;;;0.39;70.85;97538.19;4957981;28;20041;-77
2021/12/24 01:44:26;;;;;;;58.65;26.60;;;;;;;0.27;70.69;97526.19;4946279;28;20422;-85
2021/12/24 01:46:53;;;;;;;67.78;28.35;;;;;;;0.23;71.64;97521.88;4921983;29;20426;-85
2021/12/24 01:49:18;;;;;;;48.90;24.10;;;;;;;0.20;72.26;97527.22;4922444;28;20039;-85
2021/12/24 01:51:44;;;;;;;34.55;16.20;;;;;;;0.12;71.43;97521.28;4934075;28;20069;-85
2021/12/24 01:54:11;;;;;;;45.40;20.05;;;;;;;0.03;72.09;97508.31;4924940;28;20066;-84
2021/12/24 01:56:37;;;;;;;42.00;19.30;;;;;;;0.03;72.57;97504.81;4933706;28;20055;-85
2021/12/24 01:59:03;;;;;;;34.92;15.48;;;;;;;-0.03;72.49;97513.69;4955621;28;20576;-85
2021/12/24 02:01:29;;;;;;;43.33;20.40;;;;;;;-0.08;73.30;97510.28;4931801;28;20042;-84
2021/12/24 02:03:55;;;;;;;44.00;18.83;;;;;;;-0.06;72.53;97524.25;4930897;29;20054;-85
2021/12/24 02:06:21;;;;;;;40.78;17.70;;;;;;;-0.09;72.89;97508.56;4928015;28;20061;-83
2021/12/24 02:08:46;;;;;;;35.58;17.33;;;;;;;-0.02;73.80;97516.28;4929665;29;20042;-85
2021/12/24 02:11:12;;;;;;;40.88;18.98;;;;;;;-0.12;73.68;97503.34;4921705;28;20046;-85
2021/12/24 02:13:39;;;;;;;44.58;19.02;;;;;;;-0.12;74.63;97498.97;4930666;28;20065;-84
2021/12/24 02:16:47;;;;;;;37.20;18.40;;;;;;;-0.05;72.29;97497.09;4937330;29;20040;-84
2021/12/24 02:29:53;;;;;;;34.35;16.23;;;;;;;0.09;72.02;97486.28;4958641;28;20093;-84
2021/12/24 02:32:18;;;;;;;32.35;14.98;;;;;;;0.02;71.71;97487.31;4933074;28;20043;-84
2021/12/24 02:34:44;;;;;;;31.23;15.32;;;;;;;-0.05;72.70;97476.94;4925244;28;20117;-84
2021/12/24 02:37:10;;;;;;;27.38;13.55;;;;;;;-0.10;71.98;97470.03;4940452;28;20073;-85
2021/12/24 02:39:37;;;;;;;21.65;11.13;;;;;;;-0.05;70.93;97453.28;4930519;28;20043;-84
2021/12/24 02:42:17;;;;;;;21.58;10.73;;;;;;;0.04;70.16;97452.19;4927426;29;20046;-85
2021/12/24 02:44:45;;;;;;;21.35;11.52;;;;;;;-0.01;71.92;97460.19;4970890;28;20035;-85
2021/12/24 02:47:37;;;;;;;36.10;16.23;;;;;;;-0.10;72.41;97447.25;4940953;29;20077;-84
2021/12/24 02:55:13;;;;;;;23.27;11.52;;;;;;;0.18;70.65;97438.75;4959562;28;20036;-85
2021/12/24 02:57:41;;;;;;;27.20;11.88;;;;;;;0.12;72.55;97434.50;4932831;28;20039;-86
2021/12/24 03:00:20;;;;;;;24.85;12.45;;;;;;;0.17;72.23;97426.50;4930962;28;20034;-85
2021/12/24 03:02:48;;;;;;;20.90;9.45;;;;;;;0.22;71.51;97419.34;4930268;29;20020;-87
2021/12/24 03:05:16;;;;;;;26.83;11.63;;;;;;;0.29;70.61;97400.78;4952132;28;20592;-83
2021/12/24 03:07:42;;;;;;;25.67;12.93;;;;;;;0.30;69.89;97402.53;4945203;28;20061;-85
2021/12/24 03:10:15;;;;;;;30.25;14.73;;;;;;;0.21;71.30;97402.75;4940743;28;20545;-86
2021/12/24 03:12:43;;;;;;;45.25;19.05;;;;;;;0.16;70.84;97404.59;4938056;28;20054;-85
2021/12/24 03:15:09;;;;;;;48.53;20.92;;;;;;;0.11;71.69;97395.09;4934234;28;20413;-85
2021/12/24 03:17:35;;;;;;;39.92;16.73;;;;;;;0.13;69.49;97385.38;4940464;28;20454;-85
2021/12/24 03:20:08;;;;;;;27.33;13.77;;;;;;;0.15;69.88;97391.50;4940904;28;20121;-85
2021/12/24 03:25:12;;;;;;;45.15;19.40;;;;;;;0.08;70.77;97411.81;4968686;28;20096;-85
2021/12/24 03:27:38;;;;;;;33.90;15.93;;;;;;;0.06;69.73;97395.22;4946427;28;20516;-86
2021/12/24 03:30:04;;;;;;;34.60;16.27;;;;;;;0.03;71.08;97379.50;4925010;29;20031;-84
2021/12/24 03:32:29;;;;;;;24.77;11.82;;;;;;;0.06;69.97;97376.81;4942950;28;20042;-85
2021/12/24 03:34:55;;;;;;;24.77;12.90;;;;;;;0.03;70.84;97371.63;4930163;29;20035;-85
2021/12/24 03:37:20;;;;;;;26.30;12.50;;;;;;;-0.01;71.51;97368.19;4932717;29;20054;-85
2021/12/24 03:39:46;;;;;;;23.35;9.80;;;;;;;0.14;69.44;97373.97;4948071;28;20066;-86
2021/12/24 03:42:12;;;;;;;19.02;9.80;;;;;;;0.29;68.68;97363.97;4932461;29;20035;-85
2021/12/24 03:44:45;;;;;;;24.52;11.00;;;;;;;0.32;68.93;97357.75;4940647;28;20122;-86
2021/12/24 03:47:16;;;;;;;19.55;10.25;;;;;;;0.26;68.67;97357.91;4954550;28;20039;-86
2021/12/24 03:52:36;;;;;;;20.10;9.73;;;;;;;0.45;67.39;97359.19;4951643;28;20061;-86
2021/12/24 03:55:02;;;;;;;23.52;11.18;;;;;;;0.35;68.66;97374.31;4942493;29;20039;-86
2021/12/24 03:57:37;;;;;;;21.40;10.30;;;;;;;0.35;67.48;97378.72;4939405;28;20035;-86
2021/12/24 04:00:16;;;;;;;19.23;10.13;;;;;;;0.34;68.40;97362.06;4942414;28;20043;-85
2021/12/24 04:02:42;;;;;;;24.23;11.55;;;;;;;0.27;68.83;97381.56;4941057;28;20102;-86
2021/12/24 04:05:08;;;;;;;35.60;16.08;;;;;;;0.31;68.93;97390.22;4930311;29;20031;-85
2021/12/24 04:07:33;;;;;;;27.88;13.98;;;;;;;0.32;68.78;97377.03;4923587;29;20114;-85
2021/12/24 04:10:05;;;;;;;42.10;17.58;;;;;;;0.36;71.82;97396.25;4947204;28;20459;-86
2021/12/24 04:12:35;;;;;;;32.75;14.75;;;;;;;0.34;70.48;97400.69;4931858;28;20039;-86
2021/12/24 04:15:01;;;;;;;60.53;26.17;;;;;;;0.34;69.42;97377.00;4946885;29;20431;-85
2021/12/24 04:17:31;;;;;;;34.67;14.80;;;;;;;0.52;68.17;97377.38;4923938;29;20071;-85
2021/12/24 04:25:28;;;;;;;46.03;17.92;;;;;;;0.69;68.19;97386.63;4953504;28;20106;-86
2021/12/24 04:27:57;;;;;;;39.83;18.30;;;;;;;0.65;68.19;97395.53;4926998;28;20054;-86
2021/12/24 04:30:28;;;;;;;45.50;15.95;;;;;;;0.70;68.22;97401.53;4937454;29;20070;-84
2021/12/24 04:33:00;;;;;;;34.20;15.43;;;;;;;0.72;68.51;97403.22;4932552;28;20050;-85
2021/12/24 04:38:22;;;;;;;30.27;12.60;;;;;;;0.84;67.48;97380.97;4940566;28;19910;-86
2021/12/24 04:51:50;;;;;;;45.30;17.73;;;;;;;0.60;70.66;97376.34;4947051;29;20107;-86
2021/12/24 05:05:10;;;;;;;35.55;15.35;;;;;;;0.57;72.04;97393.06;4943956;29;20046;-85
2021/12/24 05:10:07;;;;;;;37.47;17.07;;;;;;;0.85;70.33;97391.47;4938333;29;20842;-86
2021/12/24 05:12:34;;;;;;;38.78;14.52;;;;;;;0.93;70.48;97383.34;4929943;29;20301;-85
2021/12/24 05:15:07;;;;;;;32.45;16.20;;;;;;;1.09;70.39;97400.47;4936909;29;20043;-85
2021/12/24 05:17:49;;;;;;;33.75;15.95;;;;;;;1.04;70.66;97383.94;4927296;29;20527;-87
2021/12/24 05:22:59;;;;;;;40.70;16.20;;;;;;;1.14;70.68;97372.22;4953543;28;20046;-85
2021/12/24 05:25:24;;;;;;;56.55;21.05;;;;;;;1.20;70.26;97377.31;4919633;29;20027;-86
2021/12/24 05:27:55;;;;;;;59.67;26.77;;;;;;;1.26;70.62;97378.94;4920144;29;20043;-86
2021/12/24 05:30:21;;;;;;;59.25;26.15;;;;;;;1.30;71.36;97386.72;4935388;29;20043;-86
2021/12/24 05:32:47;;;;;;;60.75;26.80;;;;;;;1.20;71.77;97379.97;4934002;29;20043;-85
2021/12/24 05:35:13;;;;;;;30.98;13.55;;;;;;;1.23;71.77;97371.13;4943284;28;20055;-85
2021/12/24 05:37:38;;;;;;;36.38;16.60;;;;;;;1.28;72.50;97385.91;4933058;29;20491;-87
2021/12/24 05:40:04;;;;;;;40.53;17.13;;;;;;;1.31;72.18;97380.53;4938505;29;20202;-87
2021/12/24 05:42:32;;;;;;;45.05;21.17;;;;;;;1.32;71.96;97376.13;4954100;29;20495;-87
2021/12/24 05:45:03;;;;;;;40.45;19.17;;;;;;;1.37;72.09;97375.09;4929390;28;20523;-86
2021/12/24 05:47:29;;;;;;;343.43;168.23;;;;;;;1.46;72.35;97373.97;4933582;29;20112;-86
2021/12/24 05:49:55;;;;;;;100.13;53.92;;;;;;;1.58;71.92;97378.88;4925174;29;20429;-87
2021/12/24 05:52:21;;;;;;;87.68;39.38;;;;;;;1.80;71.52;97389.66;4934134;29;20056;-87
2021/12/24 05:54:47;;;;;;;60.92;25.42;;;;;;;1.74;71.61;97363.47;4926630;29;20098;-85
2021/12/24 05:57:13;;;;;;;54.80;25.40;;;;;;;1.93;71.12;97375.19;4918014;29;20044;-86
2021/12/24 05:59:39;;;;;;;73.00;34.25;;;;;;;2.02;71.70;97370.50;4947644;29;20035;-86
2021/12/24 06:02:04;;;;;;;79.82;35.10;;;;;;;2.10;71.42;97370.25;4921284;29;20492;-87
2021/12/24 06:04:30;;;;;;;64.55;30.00;;;;;;;2.23;71.97;97379.50;4918743;29;20118;-86
2021/12/24 06:06:56;;;;;;;59.75;28.50;;;;;;;2.23;71.18;97365.44;4918336;29;20043;-86
2021/12/24 06:09:22;;;;;;;72.97;32.42;;;;;;;2.33;71.49;97375.66;4936838;29;20067;-85
2021/12/24 06:11:48;;;;;;;129.63;59.58;;;;;;;2.33;70.47;97373.03;4923325;29;20036;-85
2021/12/24 06:14:13;;;;;;;117.97;52.53;;;;;;;2.48;70.34;97374.28;4933686;29;20050;-86
2021/12/24 06:19:26;;;;;;;54.67;25.48;;;;;;;2.71;69.14;97377.03;4934098;29;20123;-86
2021/12/24 06:24:46;;;;;;;24.08;12.10;;;;;;;3.47;66.09;97396.34;4922806;29;20472;-86
2021/12/24 06:27:12;;;;;;;19.95;11.27;;;;;;;3.72;64.54;97412.19;4901256;29;20027;-85
2021/12/24 06:29:37;;;;;;;20.38;9.52;;;;;;;3.99;62.95;97397.03;4905686;29;20055;-87
2021/12/24 06:32:03;;;;;;;43.67;21.88;;;;;;;4.15;62.81;97406.13;4898805;29;20039;-87
2021/12/24 06:34:31;;;;;;;38.47;19.17;;;;;;;4.34;61.99;97394.72;4929833;29;20051;-86
2021/12/24 06:36:58;;;;;;;32.50;16.52;;;;;;;4.54;61.08;97393.94;4899259;29;20106;-87
2021/12/24 06:39:23;;;;;;;25.90;12.82;;;;;;;4.65;60.64;97386.41;4893319;29;20051;-87
2021/12/24 06:41:49;;;;;;;21.63;10.60;;;;;;;4.89;60.05;97385.38;4900461;29;20083;-86
2021/12/24 06:44:15;;;;;;;14.63;8.00;;;;;;;5.16;58.71;97377.19;4901820;29;20489;-85
2021/12/24 06:46:42;;;;;;;17.55;8.15;;;;;;;5.40;57.83;97373.47;4906950;29;20412;-86
2021/12/24 06:49:08;;;;;;;15.82;7.72;;;;;;;5.57;57.01;97367.44;4915679;29;20048;-86
2021/12/24 06:51:34;;;;;;;19.55;8.88;;;;;;;5.74;56.38;97363.06;4892269;29;20040;-86
2021/12/24 06:54:00;;;;;;;16.23;8.75;;;;;;;5.97;55.97;97352.28;4894312;29;20200;-87
2021/12/24 06:56:26;;;;;;;20.55;9.18;;;;;;;6.17;55.24;97340.72;4887899;29;20048;-86
2021/12/24 06:58:51;;;;;;;21.55;9.57;;;;;;;6.50;54.49;97346.19;4896232;29;20051;-80
2021/12/24 07:01:17;;;;;;;19.35;9.95;;;;;;;6.82;53.14;97331.31;4895095;29;20126;-86
2021/12/24 07:03:42;;;;;;;25.85;12.30;;;;;;;7.39;51.89;97338.94;4934577;29;20565;-84
2021/12/24 07:06:08;;;;;;;37.25;16.10;;;;;;;8.21;50.36;97341.56;4943750;29;20038;-84
2021/12/24 07:08:34;;;;;;;18.83;9.98;;;;;;;8.43;49.34;97324.31;4935901;29;20043;-82
2021/12/24 07:11:00;;;;;;;22.73;8.48;;;;;;;8.29;49.12;97336.69;4928206;29;20059;-85
2021/12/24 07:13:27;;;;;;;28.45;9.85;;;;;;;8.11;49.81;97351.88;4937640;29;20140;-85
2021/12/24 07:15:52;;;;;;;12.55;7.45;;;;;;;7.86;50.04;97343.50;4938240;29;20046;-84
2021/12/24 07:18:18;;;;;;;18.23;8.93;;;;;;;7.79;50.66;97348.31;4932036;29;20502;-85
2021/12/24 07:20:44;;;;;;;14.57;6.47;;;;;;;7.77;50.16;97352.00;4922379;29;20074;-87
2021/12/24 07:23:09;;;;;;;10.35;5.93;;;;;;;7.66;50.16;97338.41;4928870;29;20031;-85
2021/12/24 07:25:35;;;;;;;15.90;6.93;;;;;;;7.49;50.53;97339.31;4944986;29;20118;-87
2021/12/24 07:28:01;;;;;;;12.98;6.15;;;;;;;7.61;50.60;97326.19;4945986;29;20115;-87
2021/12/24 07:30:27;;;;;;;11.52;6.53;;;;;;;7.46;50.88;97342.13;4960026;29;20042;-87
2021/12/24 07:32:53;;;;;;;14.25;7.65;;;;;;;7.66;50.60;97323.28;4962541;29;20110;-87
2021/12/24 07:35:18;;;;;;;19.05;9.35;;;;;;;7.73;50.46;97327.34;4946827;29;20039;-87
2021/12/24 07:37:44;;;;;;;38.25;17.42;;;;;;;8.03;50.35;97325.66;4945825;29;20070;-86
2021/12/24 07:40:15;;;;;;;19.10;10.23;;;;;;;8.16;49.89;97325.84;4945119;29;20046;-87
2021/12/24 07:42:42;;;;;;;24.50;9.27;;;;;;;8.40;49.52;97313.00;4948510;29;20114;-88
2021/12/24 07:45:10;;;;;;;13.43;6.85;;;;;;;8.67;48.99;97324.72;4943588;29;20035;-91
2021/12/24 07:47:40;;;;;;;14.52;9.10;;;;;;;8.59;48.45;97308.28;4950462;28;20058;-88
2021/12/24 07:52:53;;;;;;;13.85;6.78;;;;;;;8.84;49.09;97292.59;4948379;29;20081;-88
2021/12/24 07:55:18;;;;;;;11.60;5.78;;;;;;;8.81;48.37;97303.44;4925969;29;20067;-87
2021/12/24 07:57:46;;;;;;;8.05;4.25;;;;;;;8.77;48.42;97301.88;4946064;29;20574;-88
2021/12/24 08:00:13;;;;;;;35.78;17.35;;;;;;;8.66;49.49;97315.00;4936327;29;20508;-88
2021/12/24 08:02:38;;;;;;;8.98;4.65;;;;;;;8.69;48.32;97314.81;4948109;29;20036;-86
2021/12/24 08:05:04;;;;;;;12.65;5.38;;;;;;;8.59;48.73;97297.63;4919870;29;20152;-88
2021/12/24 08:07:30;;;;;;;12.95;5.45;;;;;;;8.85;48.42;97310.31;4920753;29;20036;-86
2021/12/24 08:09:55;;;;;;;10.40;4.97;;;;;;;9.01;47.70;97326.28;4938583;29;20050;-89
2021/12/24 08:12:21;;;;;;;9.55;5.93;;;;;;;9.03;47.97;97309.22;4943272;29;20046;-89
2021/12/24 08:14:47;;;;;;;20.92;9.30;;;;;;;9.54;47.31;97313.19;4937390;29;20484;-87
2021/12/24 08:17:13;;;;;;;14.15;5.70;;;;;;;9.57;46.96;97304.13;4934835;29;20507;-87
2021/12/24 08:19:39;;;;;;;17.33;7.90;;;;;;;9.79;46.96;97317.88;4920165;29;20043;-90
2021/12/24 08:22:05;;;;;;;9.10;5.85;;;;;;;10.72;45.48;97315.44;4927252;29;20066;-89
2021/12/24 08:24:31;;;;;;;14.77;7.05;;;;;;;11.74;43.11;97283.38;4950186;28;20031;-90
2021/12/24 08:26:57;;;;;;;15.88;6.80;;;;;;;13.68;39.23;97276.78;4949533;29;20050;-89
2021/12/24 08:29:23;;;;;;;14.40;6.68;;;;;;;14.92;37.14;97268.47;4940006;29;20040;-89
2021/12/24 08:31:52;;;;;;;10.73;5.25;;;;;;;15.26;36.07;97253.81;4940566;29;20503;-89
2021/12/24 08:34:19;;;;;;;13.43;7.03;;;;;;;16.27;35.09;97235.94;4939350;29;20043;-88
2021/12/24 08:36:46;;;;;;;9.25;4.05;;;;;;;16.40;34.19;97224.84;4929571;29;20130;-89
2021/12/24 08:39:11;;;;;;;9.82;5.18;;;;;;;17.12;33.25;97223.53;4941378;29;20040;-84
2021/12/24 08:41:37;;;;;;;11.85;6.32;;;;;;;17.83;31.59;97216.72;4925420;29;20115;-83
2021/12/24 08:44:03;;;;;;;13.48;6.55;;;;;;;17.37;32.43;97203.16;4936598;29;20094;-84
2021/12/24 08:46:29;;;;;;;17.00;7.85;;;;;;;18.13;31.62;97191.25;4952626;29;20724;-83
2021/12/24 08:48:56;;;;;;;13.85;6.78;;;;;;;17.56;32.02;97184.22;4963654;29;20050;-82
2021/12/24 08:51:21;;;;;;;12.85;4.93;;;;;;;16.97;32.86;97187.13;4946151;29;20039;-85
2021/12/24 08:53:47;;;;;;;13.25;7.65;;;;;;;17.75;32.06;97199.50;4941621;29;20050;-85
2021/12/24 08:56:13;;;;;;;9.75;5.78;;;;;;;17.96;31.44;97200.16;4946517;29;20487;-85
2021/12/24 08:58:39;;;;;;;15.13;8.52;;;;;;;18.27;31.26;97222.38;4934943;29;20507;-84
2021/12/24 09:01:05;;;;;;;9.38;5.63;;;;;;;18.80;30.32;97214.38;4933346;29;20103;-84
2021/12/24 09:03:32;;;;;;;9.70;6.38;;;;;;;18.92;29.78;97203.13;4930035;29;20051;-85
2021/12/24 09:05:57;;;;;;;11.88;6.32;;;;;;;18.15;30.36;97205.47;4950711;29;20055;-85
2021/12/24 09:08:23;;;;;;;12.25;6.97;;;;;;;17.88;31.21;97206.31;4921725;29;20496;-84
2021/12/24 09:10:48;;;;;;;8.32;5.25;;;;;;;17.70;31.20;97197.25;4940450;29;20054;-84
2021/12/24 09:13:14;;;;;;;6.28;4.05;;;;;;;17.55;31.64;97185.22;4936636;29;20044;-84
2021/12/24 09:15:40;;;;;;;7.50;5.28;;;;;;;18.14;30.71;97189.38;4931637;29;20423;-85
2021/12/24 09:18:06;;;;;;;7.57;3.83;;;;;;;18.38;30.78;97173.44;4930398;29;20050;-84
2021/12/24 09:20:38;;;;;;;10.88;3.88;;;;;;;18.30;30.35;97165.22;4939320;29;20423;-85
2021/12/24 09:23:05;;;;;;;11.77;5.07;;;;;;;17.71;31.29;97177.34;4965535;29;20046;-83
2021/12/24 09:25:31;;;;;;;9.88;4.63;;;;;;;17.86;31.13;97167.72;4969178;29;20090;-84
2021/12/24 09:27:57;;;;;;;4.97;3.83;;;;;;;17.70;31.01;97170.22;4949475;29;20068;-84
2021/12/24 09:30:24;;;;;;;4.10;2.75;;;;;;;17.54;31.25;97167.25;4934667;29;20087;-83
2021/12/24 09:32:49;;;;;;;10.30;5.35;;;;;;;17.52;31.24;97149.47;4935979;29;20043;-85
2021/12/24 09:35:15;;;;;;;7.63;4.18;;;;;;;17.50;31.36;97165.84;4950118;29;20074;-84
2021/12/24 09:37:41;;;;;;;9.88;6.40;;;;;;;18.47;30.10;97149.97;4933819;29;20067;-85
2021/12/24 09:40:09;;;;;;;11.93;6.75;;;;;;;18.69;29.90;97150.44;4932869;29;20047;-84
2021/12/24 09:42:35;;;;;;;9.90;6.20;;;;;;;17.98;30.70;97154.00;4928862;29;20067;-85
2021/12/24 09:45:02;;;;;;;11.90;5.03;;;;;;;18.26;30.43;97161.09;4931339;29;20020;-83
2021/12/24 09:47:28;;;;;;;13.50;6.90;;;;;;;18.86;29.93;97149.56;4926645;29;20059;-88
2021/12/24 09:49:54;;;;;;;14.50;5.30;;;;;;;17.65;30.84;97164.41;4941365;29;20090;-84
2021/12/24 09:52:21;;;;;;;7.72;4.18;;;;;;;16.89;32.19;97153.72;4954292;28;20569;-83
2021/12/24 09:54:47;;;;;;;25.13;5.55;;;;;;;16.87;32.67;97156.56;4928681;28;20126;-84
2021/12/24 09:57:14;;;;;;;9.10;4.60;;;;;;;17.18;32.32;97152.69;4927437;28;20608;-85
2021/12/24 09:59:40;;;;;;;8.32;4.07;;;;;;;18.03;31.10;97148.97;4953441;28;20460;-84
2021/12/24 10:02:08;;;;;;;10.13;4.57;;;;;;;18.35;30.66;97143.94;4934336;28;20070;-84
2021/12/24 10:04:35;;;;;;;12.38;5.13;;;;;;;17.30;31.76;97142.56;4928372;28;20047;-83
2021/12/24 10:07:07;;;;;;;9.18;5.05;;;;;;;18.11;31.12;97127.44;4928940;28;20038;-85
2021/12/24 10:09:35;;;;;;;9.63;3.78;;;;;;;18.01;30.95;97126.63;4919918;28;20074;-86
2021/12/24 10:12:07;;;;;;;13.00;5.03;;;;;;;17.51;31.39;97116.16;4932418;28;20042;-84
2021/12/24 10:14:38;;;;;;;8.95;3.85;;;;;;;17.27;31.99;97119.38;4925824;28;20122;-85
2021/12/24 10:17:16;;;;;;;8.97;5.97;;;;;;;18.32;30.63;97117.16;4933860;28;20041;-85
2021/12/24 10:19:54;;;;;;;6.50;3.30;;;;;;;18.82;29.90;97099.41;4947329;28;20488;-86
2021/12/24 10:22:20;;;;;;;18.63;5.03;;;;;;;18.60;30.23;97107.16;4945266;28;20533;-84
2021/12/24 10:25:10;;;;;;;9.05;4.28;;;;;;;18.84;29.94;97107.34;4929112;28;20035;-83
2021/12/24 10:27:38;;;;;;;10.80;4.45;;;;;;;18.45;30.39;97111.38;4933526;28;20515;-82
2021/12/24 10:30:16;;;;;;;7.25;4.20;;;;;;;17.65;31.45;97123.81;4932350;28;20561;-84
2021/12/24 10:32:41;;;;;;;8.32;3.47;;;;;;;16.88;32.41;97123.16;4943033;29;20051;-82
2021/12/24 10:35:27;;;;;;;14.20;4.05;;;;;;;16.66;32.92;97129.72;4926326;29;20090;-83
2021/12/24 10:38:28;;;;;;;5.38;3.10;;;;;;;16.50;33.32;97131.22;4930527;28;20039;-83
2021/12/24 10:41:04;;;;;;;4.50;3.35;;;;;;;16.45;33.56;97117.31;4897885;29;20051;-83
2021/12/24 10:43:35;;;;;;;4.50;3.17;;;;;;;16.52;33.03;97111.19;4924888;29;20526;-84
2021/12/24 10:46:16;;;;;;;5.55;4.07;;;;;;;15.38;34.72;97112.59;4935784;28;20415;-88
2021/12/24 10:49:02;;;;;;;5.90;3.88;;;;;;;14.67;36.02;97116.19;4945682;28;20058;-90
2021/12/24 10:54:22;;;;;;;4.38;2.80;;;;;;;15.32;34.92;97099.69;4945580;28;20121;-90
2021/12/24 10:56:50;;;;;;;8.25;4.05;;;;;;;15.82;34.35;97086.25;4943051;28;20042;-90
2021/12/24 10:59:49;;;;;;;5.70;3.42;;;;;;;16.26;33.71;97101.97;4943742;28;20069;-90
2021/12/24 11:02:14;;;;;;;10.32;3.28;;;;;;;16.56;33.40;97118.06;4935973;28;20045;-90
2021/12/24 11:04:40;;;;;;;6.90;4.07;;;;;;;16.63;33.25;97103.00;4928919;29;20481;-90
2021/12/24 11:07:44;;;;;;;9.68;3.90;;;;;;;16.85;33.09;97093.72;4932935;29;20039;-92
2021/12/24 11:10:19;;;;;;;7.20;4.22;;;;;;;16.22;33.62;97085.19;4930194;28;20031;-85
2021/12/24 11:12:47;;;;;;;7.68;5.03;;;;;;;16.70;33.00;97096.00;4954256;28;20039;-84
2021/12/24 11:15:34;;;;;;;7.28;3.83;;;;;;;16.87;32.89;97101.69;4932248;28;20111;-84
2021/12/24 11:18:16;;;;;;;10.07;3.38;;;;;;;17.55;31.61;97108.63;4949877;28;20069;-84
2021/12/24 11:20:43;;;;;;;10.93;4.85;;;;;;;17.95;31.61;97090.19;4958334;28;20034;-84
2021/12/24 11:23:14;;;;;;;9.55;3.67;;;;;;;18.03;31.02;97075.88;4946659;28;20086;-83
2021/12/24 11:25:50;;;;;;;7.00;4.60;;;;;;;17.82;31.49;97079.72;4957668;28;20042;-84
2021/12/24 11:28:37;;;;;;;7.53;3.53;;;;;;;18.33;30.42;97059.31;4943447;29;20274;-84
2021/12/24 11:31:09;;;;;;;4.82;3.50;;;;;;;18.02;31.15;97075.06;4953947;28;20050;-89
2021/12/24 11:33:38;;;;;;;6.45;3.40;;;;;;;18.24;30.83;97046.69;4946554;29;20054;-91
2021/12/24 11:36:12;;;;;;;6.70;4.30;;;;;;;18.18;30.96;97052.72;4929387;29;20079;-90
2021/12/24 11:38:43;;;;;;;21.33;11.18;;;;;;;18.24;30.77;97052.09;4944629;29;20039;-89
2021/12/24 11:41:12;;;;;;;11.57;7.13;;;;;;;17.65;31.68;97072.44;4931877;29;20047;-90
2021/12/24 11:43:41;;;;;;;9.90;6.20;;;;;;;18.63;30.50;97055.34;4932432;28;20061;-91
2021/12/24 11:46:10;;;;;;;14.18;7.50;;;;;;;19.99;28.67;97046.31;4939746;29;20697;-87
2021/12/24 11:48:47;;;;;;;7.82;5.10;;;;;;;21.20;27.28;97060.00;4945367;28;20364;-89
2021/12/24 11:51:19;;;;;;;8.75;5.70;;;;;;;21.23;26.95;97039.78;4937109;28;20049;-86
2021/12/24 11:53:45;;;;;;;19.05;9.02;;;;;;;21.59;26.89;97047.31;4932131;29;20047;-85
2021/12/24 11:56:14;;;;;;;8.60;4.32;;;;;;;21.55;26.11;97031.53;4935820;28;20655;-85
2021/12/24 11:58:46;;;;;;;9.00;4.68;;;;;;;19.97;28.57;97049.19;4930710;28;20099;-85
2021/12/24 12:01:14;;;;;;;7.95;5.15;;;;;;;20.25;28.07;97048.91;4942067;28;20110;-85
2021/12/24 12:03:52;;;;;;;14.68;6.35;;;;;;;20.68;27.32;97040.50;4946506;29;20035;-89
2021/12/24 12:06:17;;;;;;;5.90;4.47;;;;;;;21.56;26.43;97047.66;4945810;29;20039;-88
2021/12/24 12:08:48;;;;;;;24.23;5.50;;;;;;;20.89;26.99;97038.09;4941670;28;20050;-87
2021/12/24 12:11:13;;;;;;;15.48;9.18;;;;;;;20.47;27.60;97042.88;4949309;28;20257;-87
2021/12/24 12:14:04;;;;;;;9.98;5.10;;;;;;;19.43;28.95;97047.81;4955017;28;20522;-84
2021/12/24 12:16:47;;;;;;;12.25;6.38;;;;;;;19.57;29.17;97048.19;4955602;28;20051;-85
2021/12/24 12:22:56;;;;;;;13.95;7.60;;;;;;;20.61;27.35;97023.16;4965082;28;20047;-84
2021/12/24 12:25:36;;;;;;;9.45;6.20;;;;;;;20.67;27.74;97030.66;4945390;28;20043;-85
2021/12/24 12:28:07;;;;;;;22.38;10.30;;;;;;;20.44;27.82;97032.34;4951134;28;20034;-87
2021/12/24 12:30:48;;;;;;;13.90;5.47;;;;;;;20.22;28.02;97033.81;4926725;28;20551;-86
2021/12/24 12:33:14;;;;;;;15.77;9.07;;;;;;;20.19;27.88;97027.84;4943449;28;20035;-87
2021/12/24 12:35:53;;;;;;;7.28;4.60;;;;;;;20.70;27.23;97014.00;4955645;28;20038;-86
2021/12/24 12:38:35;;;;;;;10.30;5.03;;;;;;;20.40;27.63;97006.50;4952608;28;20047;-85
2021/12/24 12:41:21;;;;;;;9.18;5.50;;;;;;;20.24;27.91;97014.63;4937970;28;20069;-87
2021/12/24 12:43:47;;;;;;;8.00;5.00;;;;;;;19.76;28.38;97010.78;4938378;28;20043;-87
2021/12/24 12:46:30;;;;;;;12.85;6.50;;;;;;;19.97;28.62;97024.75;4924700;28;20046;-86
2021/12/24 12:48:56;;;;;;;9.88;6.75;;;;;;;19.27;29.22;97025.13;4933759;28;20046;-86
2021/12/24 12:51:49;;;;;;;7.35;5.05;;;;;;;19.88;28.76;97027.59;4933133;29;20043;-84
2021/12/24 12:54:59;;;;;;;10.55;5.65;;;;;;;19.87;28.66;97028.66;4950873;28;20043;-85
2021/12/24 12:57:36;;;;;;;9.75;4.70;;;;;;;20.04;28.45;97027.66;4957951;28;20051;-85
2021/12/24 13:00:08;;;;;;;11.57;5.75;;;;;;;20.92;27.34;97032.31;4941226;28;20050;-86
2021/12/24 13:02:57;;;;;;;264.77;106.82;;;;;;;21.84;26.21;97017.28;4953734;28;20451;-86
2021/12/24 13:05:41;;;;;;;15.35;7.07;;;;;;;20.24;28.02;97025.50;4946162;28;20053;-84
2021/12/24 13:08:22;;;;;;;15.27;5.13;;;;;;;20.44;27.86;97016.03;4966930;28;20035;-85
2021/12/24 13:11:20;;;;;;;20.40;9.25;;;;;;;21.55;26.54;97017.91;4933836;28;20097;-85
2021/12/24 13:14:01;;;;;;;11.20;6.38;;;;;;;21.28;27.00;97018.34;4903391;28;20130;-85
2021/12/24 13:16:32;;;;;;;17.90;8.02;;;;;;;20.26;28.19;97007.19;4960656;28;20035;-85
2021/12/24 13:19:15;;;;;;;15.90;8.40;;;;;;;20.85;27.48;97006.00;4958966;28;20109;-84
2021/12/24 13:24:50;;;;;;;30.98;17.90;;;;;;;19.50;28.92;97003.75;4947166;28;20054;-84
2021/12/24 13:27:17;;;;;;;14.50;6.43;;;;;;;18.30;30.16;96981.09;4938945;28;20046;-83
2021/12/24 13:29:43;;;;;;;10.13;5.47;;;;;;;17.64;31.41;97005.81;4941753;28;20118;-83